aviador You're here:

LZZI Decoded Metar

ZILINA in SLOVAKIA
Report Time2018-06-23 12:00:00
UTC Time2018-06-23 12:10:58
Flight Rules vfr VFR
Wind290° at 03 kt
W.Decomp.*RWY 24: 2.0 kt HW 2.2 kt RCW
W.Rank290° ranks 21
Current wind is below 290° avg. (4.3)
Visibility9999 m
Phenomena:N/A
Clouds:Broken 040 Hf
Expected CloudBase > 2,800 ft AGL from Temp-Dew spread
Ceiling4,000 ft
Temp15°C (ISA +2)
Dew Point08°C (63% RH)
AAT13.5°C
QNH1018 hPa
Density Alt1,240 ft
Elevation1,020 ft
Report Wrong Elevation
Raw Report
METAR LZZI 231200Z 29003KT 240V350 9999 BKN040 15/08 Q1018=

Extra information for LZZI:More info

Metar Taf Metar & Taf Last 4 Metars F.Rules Stats Wind Profile Meteogram Temp Stats Airport Information Weather charts Add Link Nearby VenuesMetar ALERT Operation Metar Decoded Social comments